Time;durP1;ratioP1;P1;durP2;ratioP2;P2;SDS_P1;SDS_P2;PMS_P1;PMS_P2;Temp;Humidity;BMP_temperature;BMP_pressure;BME280_temperature;BME280_humidity;BME280_pressure;Samples;Min_cycle;Max_cycle;Signal;HPM_P1;HPM_P2
2022/08/02 00:00:44;;;;;;;1.30;0.60;;;;;;;16.65;83.67;101169.91;5010802;28;20558;-68
2022/08/02 00:03:09;;;;;;;3.60;0.65;;;;;;;16.71;82.95;101174.59;5017024;28;20112;-67
2022/08/02 00:05:35;;;;;;;3.13;1.13;;;;;;;16.75;82.80;101178.13;5010396;28;20034;-68
2022/08/02 00:08:00;;;;;;;3.35;0.50;;;;;;;16.68;83.05;101180.03;5008243;28;20064;-68
2022/08/02 00:10:26;;;;;;;0.47;0.35;;;;;;;16.70;83.03;101183.16;5009171;28;20026;-68
2022/08/02 00:12:52;;;;;;;1.95;0.70;;;;;;;16.56;83.11;101175.72;5010901;28;20447;-68
2022/08/02 00:15:18;;;;;;;3.10;0.90;;;;;;;16.56;83.51;101169.50;5009138;28;20037;-68
2022/08/02 00:17:44;;;;;;;0.60;0.60;;;;;;;16.58;83.25;101172.63;5008891;28;20034;-67
2022/08/02 00:20:11;;;;;;;1.25;0.60;;;;;;;16.55;83.70;101170.66;5013306;28;20030;-68
2022/08/02 00:22:36;;;;;;;1.95;0.52;;;;;;;16.40;83.77;101177.94;5014551;28;20517;-68
2022/08/02 00:25:03;;;;;;;0.85;0.77;;;;;;;16.37;84.19;101176.00;5014294;28;20037;-68
2022/08/02 00:27:29;;;;;;;0.70;0.52;;;;;;;16.33;84.44;101174.41;5011155;28;20044;-68
2022/08/02 00:29:54;;;;;;;2.47;0.65;;;;;;;16.44;84.17;101173.28;5011643;28;20030;-67
2022/08/02 00:32:22;;;;;;;1.30;0.65;;;;;;;16.58;83.07;101175.34;5014658;28;20040;-68
2022/08/02 00:34:48;;;;;;;2.88;1.13;;;;;;;16.53;82.79;101178.44;5013290;28;20041;-67
2022/08/02 00:37:13;;;;;;;4.90;0.70;;;;;;;16.35;83.90;101177.53;5014408;28;20391;-68
2022/08/02 00:39:39;;;;;;;1.33;0.55;;;;;;;16.46;83.55;101172.91;5014773;28;20117;-68
2022/08/02 00:42:05;;;;;;;3.00;0.82;;;;;;;16.24;84.85;101172.81;5014341;28;20049;-68
2022/08/02 00:44:30;;;;;;;1.40;0.80;;;;;;;16.20;84.94;101174.72;5012744;28;20042;-67
2022/08/02 00:46:56;;;;;;;0.77;0.40;;;;;;;16.18;84.73;101171.59;5011770;28;20045;-68
2022/08/02 00:49:21;;;;;;;3.47;0.80;;;;;;;16.25;84.48;101166.22;5013698;28;20041;-68
2022/08/02 00:51:47;;;;;;;2.25;0.57;;;;;;;16.20;84.39;101166.56;5014029;28;20107;-68
2022/08/02 00:54:13;;;;;;;3.95;0.93;;;;;;;16.21;84.32;101162.69;5008664;28;20077;-68
2022/08/02 00:56:39;;;;;;;1.25;0.75;;;;;;;16.19;83.81;101166.94;5012925;28;20026;-67
2022/08/02 00:59:04;;;;;;;1.65;0.75;;;;;;;16.10;84.36;101174.66;5013970;28;20513;-68
2022/08/02 01:01:40;;;;;;;2.45;0.80;;;;;;;16.06;84.92;101179.31;5014036;28;20128;-67
2022/08/02 01:04:12;;;;;;;2.70;0.57;;;;;;;16.12;84.48;101175.06;5014173;28;20061;-68
2022/08/02 01:06:41;;;;;;;3.45;0.70;;;;;;;16.11;84.29;101181.66;5016063;28;20464;-68
2022/08/02 01:09:07;;;;;;;0.65;0.65;;;;;;;16.01;85.14;101183.13;5016147;28;20417;-68
2022/08/02 01:11:34;;;;;;;0.70;0.70;;;;;;;15.80;86.22;101180.28;5013729;28;20041;-68
2022/08/02 01:14:12;;;;;;;1.35;0.90;;;;;;;15.78;86.15;101193.44;5012564;28;20045;-68
2022/08/02 01:17:16;;;;;;;0.50;0.50;;;;;;;15.81;85.48;101197.34;5024806;28;20034;-68
2022/08/02 01:20:10;;;;;;;0.50;0.43;;;;;;;15.79;85.47;101195.03;5022399;28;20033;-68
2022/08/02 01:22:47;;;;;;;1.27;0.80;;;;;;;15.67;86.39;101194.53;5012585;28;20025;-68
2022/08/02 01:25:26;;;;;;;1.15;0.88;;;;;;;15.71;86.40;101203.47;5012099;28;20529;-68
2022/08/02 01:28:29;;;;;;;3.72;0.57;;;;;;;15.67;86.07;101208.09;5012453;28;20045;-68
2022/08/02 01:30:59;;;;;;;11.20;0.60;;;;;;;15.89;84.76;101197.03;5012246;28;20022;-68
2022/08/02 01:33:31;;;;;;;1.25;0.70;;;;;;;15.74;85.55;101197.28;5008468;28;20041;-68
2022/08/02 01:35:58;;;;;;;0.70;0.55;;;;;;;15.64;86.53;101208.88;5013295;28;20033;-68
2022/08/02 01:38:52;;;;;;;1.13;0.70;;;;;;;15.58;86.73;101202.97;5012454;28;20475;-68
2022/08/02 01:41:20;;;;;;;0.73;0.47;;;;;;;15.52;86.95;101195.56;5012316;28;20592;-68
2022/08/02 01:43:48;;;;;;;1.27;0.77;;;;;;;15.54;87.01;101204.91;5010103;28;20022;-68
2022/08/02 01:46:16;;;;;;;0.77;0.63;;;;;;;15.52;87.14;101190.13;5010166;28;20025;-68
2022/08/02 01:48:45;;;;;;;1.00;0.73;;;;;;;15.58;86.66;101189.41;5011941;28;20042;-68
2022/08/02 01:51:13;;;;;;;0.55;0.50;;;;;;;15.48;87.13;101192.81;5026653;28;20069;-68
2022/08/02 01:53:42;;;;;;;3.20;0.77;;;;;;;15.47;87.17;101188.53;5010958;28;20092;-68
2022/08/02 01:56:10;;;;;;;1.23;0.70;;;;;;;15.53;86.68;101197.91;5011975;28;20038;-68
2022/08/02 01:58:38;;;;;;;0.90;0.68;;;;;;;15.46;86.86;101189.69;5013017;28;20122;-68
2022/08/02 02:01:06;;;;;;;2.80;0.90;;;;;;;15.41;86.85;101194.66;5012884;28;20042;-68
2022/08/02 02:03:34;;;;;;;0.77;0.60;;;;;;;15.41;87.08;101194.66;5012489;28;20030;-68
2022/08/02 02:06:03;;;;;;;1.55;0.75;;;;;;;15.46;87.09;101189.69;5012741;28;20116;-68
2022/08/02 02:08:35;;;;;;;0.55;0.52;;;;;;;15.47;86.22;101196.69;5012882;28;20045;-68
2022/08/02 02:11:02;;;;;;;0.80;0.60;;;;;;;15.41;86.31;101191.94;5011546;28;20046;-68
2022/08/02 02:13:30;;;;;;;0.75;0.57;;;;;;;15.35;86.24;101196.91;5010818;28;20065;-68
2022/08/02 02:15:57;;;;;;;0.85;0.60;;;;;;;15.35;86.61;101203.13;5012612;28;20113;-68
2022/08/02 02:18:25;;;;;;;1.05;0.80;;;;;;;15.31;87.19;101210.44;5011203;28;20092;-68
2022/08/02 02:20:51;;;;;;;1.33;1.00;;;;;;;15.29;87.36;101203.84;5012381;28;20053;-68
2022/08/02 02:23:17;;;;;;;1.85;0.88;;;;;;;15.24;87.13;101212.31;5010832;28;20030;-68
2022/08/02 02:25:44;;;;;;;1.08;0.63;;;;;;;15.25;86.56;101198.38;5012582;28;20076;-68
2022/08/02 02:28:21;;;;;;;1.90;0.80;;;;;;;15.29;86.86;101199.19;5012163;28;20034;-68
2022/08/02 02:30:49;;;;;;;2.78;0.90;;;;;;;15.18;85.99;101198.31;5003320;28;20373;-69
2022/08/02 02:33:17;;;;;;;1.95;0.70;;;;;;;15.18;86.55;101192.09;5008838;28;20027;-69
2022/08/02 02:35:46;;;;;;;2.92;0.57;;;;;;;15.19;86.55;101199.84;5008890;28;20483;-68
2022/08/02 02:38:15;;;;;;;1.08;0.55;;;;;;;15.10;87.04;101195.88;5011473;28;20033;-69
2022/08/02 02:40:43;;;;;;;2.80;0.90;;;;;;;15.08;87.34;101193.53;5005414;28;20061;-68
2022/08/02 02:43:11;;;;;;;2.08;0.82;;;;;;;15.13;87.19;101192.44;5012120;28;20378;-68
2022/08/02 02:45:38;;;;;;;0.95;0.75;;;;;;;15.01;87.77;101176.41;5012123;28;20064;-68
2022/08/02 02:48:05;;;;;;;1.23;0.63;;;;;;;15.15;87.41;101163.00;5010288;28;20121;-69
2022/08/02 02:50:32;;;;;;;0.85;0.75;;;;;;;15.06;87.60;101165.25;5010794;28;20037;-69
2022/08/02 02:53:00;;;;;;;1.17;0.63;;;;;;;15.04;87.96;101175.69;5011942;28;20037;-67
2022/08/02 02:55:27;;;;;;;1.20;0.70;;;;;;;14.92;88.00;101174.00;5009518;28;20034;-67
2022/08/02 02:57:54;;;;;;;1.85;1.10;;;;;;;15.05;87.59;101179.94;5011848;28;20030;-67
2022/08/02 03:01:26;;;;;;;1.02;0.73;;;;;;;15.04;87.26;101181.88;5011534;28;20033;-67
2022/08/02 03:03:07;;;;;;;1.02;0.85;;;;;;;15.02;87.05;101178.00;5006770;28;20221;-67
2022/08/02 03:05:32;;;;;;;5.25;1.40;;;;;;;15.01;86.99;101169.06;5009691;28;20025;-67
2022/08/02 03:07:58;;;;;;;1.13;0.60;;;;;;;14.95;86.84;101173.25;5011638;28;20560;-67
2022/08/02 03:10:24;;;;;;;2.47;1.75;;;;;;;14.92;87.23;101173.22;5011175;28;20112;-67
2022/08/02 03:12:50;;;;;;;1.52;0.80;;;;;;;14.87;87.49;101171.63;5007922;28;20621;-67
2022/08/02 03:15:16;;;;;;;1.33;0.93;;;;;;;14.95;86.92;101167.84;5008377;28;20116;-67
2022/08/02 03:17:44;;;;;;;0.90;0.70;;;;;;;14.94;87.10;101170.91;5010923;28;20438;-67
2022/08/02 03:20:13;;;;;;;0.80;0.80;;;;;;;14.80;87.91;101165.34;5009597;28;20486;-68
2022/08/02 03:22:39;;;;;;;1.30;0.90;;;;;;;14.75;87.92;101160.25;5010436;28;20375;-67
2022/08/02 03:25:07;;;;;;;3.03;0.95;;;;;;;14.72;87.90;101152.84;5010382;28;20073;-68
2022/08/02 03:27:32;;;;;;;2.38;0.80;;;;;;;14.75;88.12;101161.00;5008606;28;20383;-67
2022/08/02 03:29:58;;;;;;;0.82;0.63;;;;;;;14.74;88.18;101161.38;5009939;28;20038;-67
2022/08/02 03:32:23;;;;;;;3.00;1.88;;;;;;;14.60;88.46;101162.00;5011194;28;20069;-67
2022/08/02 03:34:49;;;;;;;4.00;0.98;;;;;;;14.47;89.28;101168.81;5009161;28;20026;-67
2022/08/02 03:37:15;;;;;;;2.80;0.70;;;;;;;14.68;88.07;101160.94;5010365;28;20033;-67
2022/08/02 03:39:40;;;;;;;1.73;0.88;;;;;;;14.76;87.63;101159.09;5011423;28;20104;-67
2022/08/02 03:42:07;;;;;;;1.00;0.55;;;;;;;14.70;88.05;101164.06;5011827;28;20038;-67
2022/08/02 03:44:33;;;;;;;0.63;0.43;;;;;;;14.65;87.69;101164.41;5011104;28;20050;-67
2022/08/02 03:46:59;;;;;;;1.13;0.68;;;;;;;14.58;88.59;101169.72;5008601;28;20111;-67
2022/08/02 03:49:25;;;;;;;6.43;1.05;;;;;;;14.61;89.10;101170.91;5010186;28;20382;-67
2022/08/02 03:51:52;;;;;;;0.55;0.50;;;;;;;14.41;90.00;101165.66;5011456;28;20034;-67
2022/08/02 03:54:18;;;;;;;1.15;0.75;;;;;;;14.61;89.35;101174.41;5010089;28;20026;-67
2022/08/02 03:56:44;;;;;;;2.83;0.60;;;;;;;14.68;89.10;101174.50;5008508;28;20409;-67
2022/08/02 03:59:12;;;;;;;2.92;1.02;;;;;;;14.73;88.71;101176.09;5010152;28;20033;-67
2022/08/02 04:01:37;;;;;;;3.22;0.90;;;;;;;14.65;89.20;101169.03;5011467;28;20042;-67
2022/08/02 04:04:04;;;;;;;1.58;0.52;;;;;;;14.76;88.98;101167.22;5011448;28;20028;-67
2022/08/02 04:06:29;;;;;;;0.77;0.77;;;;;;;14.84;88.16;101166.16;5008153;28;20029;-67
2022/08/02 04:08:55;;;;;;;1.08;0.80;;;;;;;14.84;88.45;101160.72;4996833;28;20393;-67
2022/08/02 04:11:29;;;;;;;0.93;0.93;;;;;;;14.73;89.32;101162.56;5010985;28;20092;-67
2022/08/02 04:13:57;;;;;;;1.05;0.77;;;;;;;14.68;89.71;101160.16;5009159;28;20117;-67
2022/08/02 04:16:30;;;;;;;0.93;0.55;;;;;;;14.86;88.76;101156.50;5010115;28;20478;-68
2022/08/02 04:19:00;;;;;;;1.30;1.00;;;;;;;14.82;89.56;101166.53;4991740;28;20529;-67
2022/08/02 04:21:31;;;;;;;2.70;1.15;;;;;;;14.82;89.94;101168.44;4992078;28;20468;-67
2022/08/02 04:23:57;;;;;;;;;;;;;;;14.77;90.59;101171.50;4991232;28;20030;-67
2022/08/02 04:26:24;;;;;;;0.65;0.60;;;;;;;14.84;90.59;101174.28;4991833;28;19910;-67
2022/08/02 04:28:50;;;;;;;1.63;1.00;;;;;;;14.94;90.77;101166.25;4991954;28;20030;-67
2022/08/02 04:31:17;;;;;;;1.13;0.70;;;;;;;14.92;90.43;101167.78;4991721;28;20080;-68
2022/08/02 04:33:44;;;;;;;1.13;0.68;;;;;;;15.03;90.30;101176.81;5008819;28;20128;-68
2022/08/02 04:36:12;;;;;;;1.00;0.90;;;;;;;15.03;90.79;101171.41;4991555;28;20105;-68
2022/08/02 04:38:39;;;;;;;0.80;0.80;;;;;;;15.07;91.20;101183.84;5007283;28;20053;-67
2022/08/02 04:41:04;;;;;;;1.52;0.82;;;;;;;15.12;91.19;101186.22;5011051;28;20026;-67
2022/08/02 04:43:30;;;;;;;1.77;0.98;;;;;;;15.18;90.66;101186.66;5011174;28;20030;-67
2022/08/02 04:45:56;;;;;;;1.27;0.93;;;;;;;15.23;90.98;101194.50;5009702;28;20168;-67
2022/08/02 04:48:23;;;;;;;3.40;0.77;;;;;;;15.11;91.16;101192.03;5010918;28;20445;-68
2022/08/02 04:50:49;;;;;;;1.77;1.00;;;;;;;15.07;91.89;101186.56;5011134;28;20026;-68
2022/08/02 04:53:14;;;;;;;1.27;0.80;;;;;;;15.08;91.74;101190.03;5011116;28;20479;-68
2022/08/02 04:55:40;;;;;;;0.70;0.70;;;;;;;15.05;92.17;101193.50;5002241;28;20056;-67
2022/08/02 04:58:05;;;;;;;3.75;1.00;;;;;;;15.07;91.98;101192.00;5011392;28;20056;-68
2022/08/02 05:00:31;;;;;;;1.50;1.02;;;;;;;15.11;91.42;101192.03;5009439;28;20033;-68
2022/08/02 05:02:58;;;;;;;1.23;0.75;;;;;;;15.05;91.30;101194.31;5010606;28;20045;-68
2022/08/02 05:05:24;;;;;;;1.15;0.75;;;;;;;15.07;91.58;101191.22;5011984;28;20026;-68
2022/08/02 05:07:50;;;;;;;3.00;1.17;;;;;;;15.13;91.61;101195.94;5014463;28;20136;-68
2022/08/02 05:10:16;;;;;;;1.92;1.10;;;;;;;15.16;91.14;101197.91;5007708;28;20112;-68
2022/08/02 05:12:41;;;;;;;1.85;1.20;;;;;;;15.09;91.36;101191.63;5009359;28;20034;-67
2022/08/02 05:15:08;;;;;;;1.40;1.10;;;;;;;15.17;90.55;101196.75;5012833;28;20030;-67
2022/08/02 05:17:34;;;;;;;1.88;0.93;;;;;;;15.10;91.20;101193.94;5013864;28;20513;-67
2022/08/02 05:19:59;;;;;;;5.30;1.13;;;;;;;15.18;90.85;101192.09;5010706;28;20033;-67
2022/08/02 05:22:25;;;;;;;0.90;0.60;;;;;;;15.08;90.24;101188.13;5012466;28;20045;-67
2022/08/02 05:24:50;;;;;;;3.08;0.93;;;;;;;15.13;90.81;101189.72;5012361;28;20068;-67
2022/08/02 05:27:16;;;;;;;2.67;1.15;;;;;;;15.10;91.41;101190.44;5013256;28;20080;-67
2022/08/02 05:29:41;;;;;;;2.15;1.08;;;;;;;14.99;92.43;101189.56;4995332;28;20482;-67
2022/08/02 05:32:07;;;;;;;1.50;1.20;;;;;;;14.87;93.12;101187.88;5003723;28;20120;-69
2022/08/02 05:34:32;;;;;;;2.72;1.30;;;;;;;15.06;92.62;101190.41;5013583;28;20060;-67
2022/08/02 05:36:58;;;;;;;2.55;1.30;;;;;;;15.16;94.09;101194.41;5008819;28;20048;-67
2022/08/02 05:39:23;;;;;;;1.88;1.13;;;;;;;15.19;94.31;101189.00;5012148;28;20030;-67
2022/08/02 05:41:49;;;;;;;1.38;1.13;;;;;;;15.47;92.74;101198.59;5013146;28;20490;-68
2022/08/02 05:44:14;;;;;;;2.90;1.48;;;;;;;15.56;92.51;101186.31;5012973;28;20048;-68
2022/08/02 05:46:40;;;;;;;3.22;1.73;;;;;;;15.81;91.01;101198.16;5009547;28;20040;-67
2022/08/02 05:49:06;;;;;;;1.38;0.98;;;;;;;15.97;90.20;101204.06;5010902;28;20022;-67
2022/08/02 05:51:41;;;;;;;1.83;1.42;;;;;;;16.08;89.60;101201.44;5012795;28;20138;-67
2022/08/02 05:54:17;;;;;;;2.00;1.05;;;;;;;16.01;89.69;101202.16;5011195;28;20033;-67
2022/08/02 05:56:55;;;;;;;2.63;1.20;;;;;;;16.22;89.84;101196.06;5012678;28;20437;-68
2022/08/02 05:59:35;;;;;;;2.05;0.80;;;;;;;16.48;88.97;101192.34;5012427;28;20710;-68
2022/08/02 06:02:25;;;;;;;5.75;1.17;;;;;;;16.65;88.83;101197.91;5011792;28;20034;-67
2022/08/02 06:05:12;;;;;;;1.70;0.90;;;;;;;17.24;85.53;101199.25;5010745;28;20490;-67
2022/08/02 06:07:41;;;;;;;1.83;1.25;;;;;;;17.68;85.04;101210.63;5011527;28;20498;-67
2022/08/02 06:10:08;;;;;;;2.65;1.20;;;;;;;18.02;83.98;101206.31;5012887;28;20037;-68
2022/08/02 06:12:48;;;;;;;2.25;0.80;;;;;;;17.91;81.77;101208.28;5011027;28;20057;-67
2022/08/02 06:15:16;;;;;;;1.95;0.90;;;;;;;17.97;82.27;101211.38;5005294;28;20052;-69
2022/08/02 06:17:42;;;;;;;1.10;0.90;;;;;;;18.15;82.18;101203.97;5011524;28;20034;-69
2022/08/02 06:20:10;;;;;;;2.35;0.70;;;;;;;18.28;81.36;101207.06;5012675;28;20116;-69
2022/08/02 06:22:41;;;;;;;5.72;1.73;;;;;;;18.84;80.13;101204.94;5009193;28;20117;-68
2022/08/02 06:25:07;;;;;;;1.13;0.90;;;;;;;18.95;78.76;101196.69;5009627;28;20041;-69
2022/08/02 06:27:34;;;;;;;2.42;0.90;;;;;;;18.93;79.06;101205.28;5012238;28;20042;-69
2022/08/02 06:30:02;;;;;;;1.85;1.20;;;;;;;19.30;79.32;101201.97;5009560;28;20049;-68
2022/08/02 06:32:27;;;;;;;1.00;0.80;;;;;;;19.52;76.71;101195.22;5010311;28;20061;-69
2022/08/02 06:34:53;;;;;;;2.25;1.02;;;;;;;19.60;77.62;101204.91;5009113;28;20502;-69
2022/08/02 06:37:27;;;;;;;1.10;0.60;;;;;;;19.65;73.89;101204.47;5005808;28;20402;-69
2022/08/02 06:40:26;;;;;;;1.38;0.50;;;;;;;19.67;75.61;101210.31;5009348;28;20487;-69
2022/08/02 06:43:10;;;;;;;4.88;1.00;;;;;;;19.76;75.69;101207.88;5003023;28;20045;-69
2022/08/02 06:45:36;;;;;;;2.88;0.95;;;;;;;19.53;75.90;101198.72;5011268;28;20402;-69
2022/08/02 06:48:03;;;;;;;0.90;0.70;;;;;;;19.95;75.71;101197.59;5009494;28;20406;-69
2022/08/02 06:50:49;;;;;;;3.20;0.60;;;;;;;19.99;70.86;101201.06;5010179;28;20109;-69
2022/08/02 06:53:15;;;;;;;3.30;0.57;;;;;;;19.83;71.63;101203.53;4977374;28;20048;-69
2022/08/02 06:55:40;;;;;;;2.92;1.77;;;;;;;19.90;69.16;101203.50;4985874;28;20558;-69
2022/08/02 06:58:06;;;;;;;0.77;0.47;;;;;;;19.77;69.99;101205.94;4988343;28;20050;-69
2022/08/02 07:00:31;;;;;;;1.75;0.40;;;;;;;19.67;68.48;101199.38;4988610;28;20065;-69
2022/08/02 07:02:57;;;;;;;1.33;0.40;;;;;;;19.37;69.89;101192.97;4989450;28;20108;-69
2022/08/02 07:05:23;;;;;;;1.45;0.50;;;;;;;19.41;70.47;101191.78;4986136;28;20042;-69
2022/08/02 07:07:48;;;;;;;0.85;0.60;;;;;;;19.75;69.79;101189.94;4988456;28;20105;-69
2022/08/02 07:10:14;;;;;;;4.32;0.75;;;;;;;19.36;70.09;101197.66;4987910;28;20548;-69
2022/08/02 07:12:40;;;;;;;1.05;0.35;;;;;;;19.88;70.95;101201.16;4988236;28;20626;-69
2022/08/02 07:15:07;;;;;;;1.00;0.40;;;;;;;19.96;68.15;101190.91;4988815;28;20033;-69
2022/08/02 07:17:33;;;;;;;1.90;0.82;;;;;;;19.67;67.30;101188.44;4989620;28;20578;-69
2022/08/02 07:19:59;;;;;;;1.17;0.43;;;;;;;19.54;69.82;101179.19;4988335;28;20037;-69
2022/08/02 07:22:26;;;;;;;3.25;0.30;;;;;;;20.14;71.23;101181.38;4989445;28;20118;-69
2022/08/02 07:24:53;;;;;;;1.10;0.43;;;;;;;20.32;67.13;101186.69;4989046;28;20036;-69
2022/08/02 07:27:20;;;;;;;0.88;0.57;;;;;;;20.60;65.79;101191.81;4988506;28;20050;-69
2022/08/02 07:29:45;;;;;;;0.70;0.25;;;;;;;21.09;66.50;101190.44;4994812;28;20099;-69
2022/08/02 07:32:11;;;;;;;1.35;0.50;;;;;;;21.21;61.79;101198.88;5011144;28;20042;-69
2022/08/02 07:34:36;;;;;;;0.75;0.50;;;;;;;21.14;62.44;101192.69;5007866;28;20022;-69
2022/08/02 07:37:02;;;;;;;1.90;0.52;;;;;;;21.28;62.00;101181.53;5011438;28;20045;-69
2022/08/02 07:39:28;;;;;;;1.92;0.93;;;;;;;20.97;62.53;101174.53;5009450;28;20402;-69
2022/08/02 07:41:53;;;;;;;2.10;0.82;;;;;;;21.09;63.94;101172.03;5007878;28;20407;-69
2022/08/02 07:44:19;;;;;;;1.48;0.50;;;;;;;21.52;63.84;101174.91;5010843;28;20030;-69
2022/08/02 07:46:45;;;;;;;0.40;0.40;;;;;;;21.94;62.62;101184.41;5010486;28;20033;-70
2022/08/02 07:49:17;;;;;;;0.68;0.43;;;;;;;21.97;62.75;101186.34;5009878;28;20497;-69
2022/08/02 07:51:45;;;;;;;0.40;0.30;;;;;;;22.43;59.98;101187.00;5009991;28;20037;-69
2022/08/02 07:54:11;;;;;;;1.88;0.40;;;;;;;22.37;60.74;101185.19;5012295;28;20475;-69
2022/08/02 07:56:37;;;;;;;1.10;0.80;;;;;;;22.42;58.72;101192.91;5008948;28;20049;-69
2022/08/02 07:59:23;;;;;;;2.92;0.60;;;;;;;22.86;59.87;101203.41;5011328;28;20437;-69
2022/08/02 08:01:50;;;;;;;2.55;0.50;;;;;;;22.90;57.06;101200.59;4981794;28;20439;-69
2022/08/02 08:04:16;;;;;;;1.42;0.68;;;;;;;23.05;59.43;101190.84;4987030;28;20118;-69
2022/08/02 08:06:42;;;;;;;0.90;0.60;;;;;;;22.94;56.51;101182.81;4972344;28;20514;-69
2022/08/02 08:09:09;;;;;;;1.08;0.60;;;;;;;23.02;57.54;101186.19;4988859;28;20030;-69
2022/08/02 08:11:34;;;;;;;1.33;0.80;;;;;;;23.02;55.49;101191.69;4985478;28;20134;-70
2022/08/02 08:14:00;;;;;;;2.78;0.38;;;;;;;23.47;57.03;101180.84;4987272;28;20568;-69
2022/08/02 08:16:27;;;;;;;0.57;0.45;;;;;;;23.10;55.47;101193.84;4988442;28;20376;-69
2022/08/02 08:18:54;;;;;;;3.55;0.90;;;;;;;23.39;57.49;101176.72;4986048;28;20096;-69
2022/08/02 08:21:22;;;;;;;2.70;1.60;;;;;;;23.44;57.05;101178.97;4984183;28;20034;-69
2022/08/02 08:23:48;;;;;;;1.85;0.65;;;;;;;23.71;54.98;101168.47;4972034;28;20026;-69
2022/08/02 08:26:15;;;;;;;0.77;0.60;;;;;;;23.73;54.93;101161.31;4988501;28;20089;-69
2022/08/02 08:28:41;;;;;;;3.05;0.57;;;;;;;24.20;54.86;101158.94;4987284;28;20047;-69
2022/08/02 08:31:06;;;;;;;3.45;0.70;;;;;;;24.22;51.84;101159.25;4972862;28;20034;-68
2022/08/02 08:33:32;;;;;;;0.65;0.50;;;;;;;24.18;53.10;101150.31;4988409;28;20124;-68
2022/08/02 08:35:58;;;;;;;0.28;0.28;;;;;;;23.92;51.45;101148.66;4968856;28;20030;-68
2022/08/02 08:38:23;;;;;;;1.83;0.60;;;;;;;23.98;52.51;101142.19;4994719;28;20108;-68
2022/08/02 08:40:50;;;;;;;0.55;0.40;;;;;;;24.25;52.53;101136.38;5012489;28;20574;-68
2022/08/02 08:43:15;;;;;;;0.80;0.40;;;;;;;24.48;52.39;101127.84;5013833;28;20026;-68
2022/08/02 08:45:45;;;;;;;1.00;0.70;;;;;;;24.55;52.26;101124.09;5012654;28;20125;-69
2022/08/02 08:48:17;;;;;;;1.67;0.52;;;;;;;24.60;51.04;101135.31;5009893;28;20034;-68
2022/08/02 08:51:18;;;;;;;1.55;0.50;;;;;;;24.47;51.82;101128.25;5011388;28;20026;-68
2022/08/02 08:53:46;;;;;;;0.70;0.43;;;;;;;24.96;51.69;101130.34;5013860;28;20037;-68
2022/08/02 08:56:14;;;;;;;2.60;0.65;;;;;;;25.11;50.62;101133.41;5013701;28;20037;-68
2022/08/02 08:58:39;;;;;;;1.15;0.50;;;;;;;24.76;50.22;101129.00;5013813;28;20036;-68
2022/08/02 09:01:05;;;;;;;4.03;0.50;;;;;;;25.06;50.97;101131.22;5011814;28;20124;-69
2022/08/02 09:03:31;;;;;;;2.33;0.73;;;;;;;25.54;51.11;101117.03;5011780;28;20025;-68
2022/08/02 09:05:57;;;;;;;6.90;1.15;;;;;;;25.26;49.55;101125.47;5012431;28;20092;-68
2022/08/02 09:08:24;;;;;;;2.75;0.70;;;;;;;25.36;49.24;101119.56;5024353;28;20044;-68
2022/08/02 09:10:49;;;;;;;1.13;0.50;;;;;;;25.85;50.34;101122.66;5013757;28;20105;-69
2022/08/02 09:13:21;;;;;;;1.30;0.40;;;;;;;26.29;48.64;101134.53;5012110;28;20253;-69
2022/08/02 09:15:56;;;;;;;1.98;0.50;;;;;;;26.77;47.65;101134.69;5009731;28;20062;-68
2022/08/02 09:18:48;;;;;;;0.55;0.32;;;;;;;26.28;48.19;101133.78;5013519;28;20112;-69
2022/08/02 09:21:16;;;;;;;3.58;0.50;;;;;;;26.49;48.49;101135.75;5008008;28;20545;-68
2022/08/02 09:23:47;;;;;;;0.82;0.32;;;;;;;26.85;47.62;101132.41;5013181;28;20068;-71
2022/08/02 09:26:16;;;;;;;0.68;0.38;;;;;;;27.24;46.64;101134.38;5011896;28;20042;-69
2022/08/02 09:28:45;;;;;;;0.68;0.30;;;;;;;27.47;47.03;101133.06;5013659;28;20042;-69
2022/08/02 09:31:18;;;;;;;1.25;0.57;;;;;;;27.49;47.21;101130.63;5012955;28;20108;-69
2022/08/02 09:33:50;;;;;;;1.83;0.85;;;;;;;27.39;45.72;101123.56;5022075;28;20026;-68
2022/08/02 09:36:16;;;;;;;2.42;0.60;;;;;;;27.45;45.84;101125.22;5013450;28;20034;-70
2022/08/02 09:39:00;;;;;;;0.68;0.60;;;;;;;26.94;45.79;101126.16;5011754;28;20049;-69
2022/08/02 09:41:28;;;;;;;2.20;0.65;;;;;;;26.09;46.94;101112.78;5007914;28;20037;-69
2022/08/02 09:43:55;;;;;;;1.15;0.38;;;;;;;26.36;48.19;101117.69;5013243;28;20033;-69
2022/08/02 09:46:25;;;;;;;1.17;0.45;;;;;;;26.29;46.43;101115.97;5013094;28;20026;-70
2022/08/02 09:48:52;;;;;;;1.05;0.40;;;;;;;26.09;47.80;101107.25;5009886;28;20030;-70
2022/08/02 09:51:23;;;;;;;2.80;0.57;;;;;;;26.79;48.03;101104.56;5012020;28;20061;-69
2022/08/02 09:53:57;;;;;;;1.45;0.47;;;;;;;27.46;46.55;101107.41;5007498;28;20065;-68
2022/08/02 09:56:24;;;;;;;0.93;0.35;;;;;;;27.90;45.92;101113.41;5010655;28;20083;-69
2022/08/02 09:58:53;;;;;;;1.98;0.68;;;;;;;28.01;45.57;101110.22;5012930;28;20030;-69
2022/08/02 10:01:32;;;;;;;1.10;0.40;;;;;;;28.48;44.49;101116.75;5012692;28;20064;-70
2022/08/02 10:03:58;;;;;;;1.80;0.70;;;;;;;28.81;43.63;101116.03;5007645;28;20415;-69
2022/08/02 10:06:25;;;;;;;0.30;0.25;;;;;;;28.63;43.90;101107.78;5012040;28;20026;-69
2022/08/02 10:08:52;;;;;;;3.13;1.00;;;;;;;28.44;43.35;101110.59;5012467;28;20038;-70
2022/08/02 10:11:20;;;;;;;1.05;0.60;;;;;;;28.53;43.55;101112.56;5010569;28;20037;-70
2022/08/02 10:13:47;;;;;;;0.50;0.38;;;;;;;28.84;42.62;101104.75;5011103;28;20030;-69
2022/08/02 10:16:15;;;;;;;0.50;0.50;;;;;;;29.13;43.37;101109.75;5012110;28;20033;-69
2022/08/02 10:18:41;;;;;;;3.20;0.60;;;;;;;29.20;41.90;101109.38;5011396;28;20052;-70
2022/08/02 10:21:12;;;;;;;0.63;0.40;;;;;;;29.13;42.10;101104.19;5005517;28;20034;-69
2022/08/02 10:23:41;;;;;;;1.67;0.50;;;;;;;29.15;42.68;101102.47;5012251;28;20041;-69
2022/08/02 10:26:07;;;;;;;1.80;0.50;;;;;;;29.33;42.47;101107.91;5010308;28;20037;-69
2022/08/02 10:28:33;;;;;;;0.40;0.25;;;;;;;28.46;43.14;101107.34;5010426;28;20187;-69
2022/08/02 10:31:04;;;;;;;1.55;0.65;;;;;;;28.63;42.47;101105.03;5011524;28;20545;-69
2022/08/02 10:33:36;;;;;;;1.05;0.55;;;;;;;28.67;40.79;101105.63;5010586;28;20065;-69
2022/08/02 10:36:05;;;;;;;1.08;0.50;;;;;;;28.42;43.11;101093.66;5011327;28;20046;-69
2022/08/02 10:38:31;;;;;;;1.67;0.55;;;;;;;28.65;42.78;101102.56;5011997;28;20490;-69
2022/08/02 10:40:57;;;;;;;1.85;0.45;;;;;;;29.04;42.36;101104.19;5012433;28;20128;-69
2022/08/02 10:43:31;;;;;;;1.38;0.80;;;;;;;29.52;41.91;101094.66;5010136;28;20113;-69
2022/08/02 10:46:21;;;;;;;0.47;0.40;;;;;;;29.92;41.15;101099.78;5011441;28;20044;-69
2022/08/02 10:49:17;;;;;;;0.90;0.43;;;;;;;29.44;38.66;101099.06;5012054;28;20047;-69
2022/08/02 10:51:54;;;;;;;0.40;0.40;;;;;;;29.59;40.42;101094.31;5011627;28;20033;-69
2022/08/02 10:54:21;;;;;;;0.40;0.30;;;;;;;29.64;39.55;101090.09;5011058;28;20395;-69
2022/08/02 10:56:48;;;;;;;0.90;0.55;;;;;;;29.41;38.41;101088.88;5007061;28;20473;-69
2022/08/02 10:59:25;;;;;;;4.25;0.45;;;;;;;29.57;38.41;101085.69;5011433;28;20415;-69
2022/08/02 11:01:52;;;;;;;0.38;0.35;;;;;;;29.71;39.26;101079.44;5010017;28;20068;-69
2022/08/02 11:04:17;;;;;;;1.88;0.63;;;;;;;30.14;38.82;101077.91;5010643;28;20033;-70
2022/08/02 11:07:18;;;;;;;1.02;0.52;;;;;;;30.28;38.14;101074.41;5011272;28;20456;-70
2022/08/02 11:09:50;;;;;;;0.80;0.50;;;;;;;30.85;37.42;101072.03;5007797;28;20025;-69
2022/08/02 11:12:20;;;;;;;1.25;0.47;;;;;;;30.97;37.15;101076.53;5009907;28;20138;-69
2022/08/02 11:14:59;;;;;;;0.40;0.30;;;;;;;30.76;38.05;101058.97;5010262;28;20034;-70
2022/08/02 11:17:27;;;;;;;1.17;0.52;;;;;;;31.08;38.47;101065.53;5007696;28;20037;-69
2022/08/02 11:20:11;;;;;;;1.50;0.50;;;;;;;30.96;37.36;101044.34;5006082;28;20026;-70
2022/08/02 11:22:38;;;;;;;1.13;0.55;;;;;;;31.13;39.08;101045.31;5004694;28;20041;-69
2022/08/02 11:25:27;;;;;;;0.40;0.40;;;;;;;31.19;38.92;101037.03;5006674;28;20038;-69
2022/08/02 11:28:13;;;;;;;3.22;0.50;;;;;;;31.48;38.71;101042.47;5008602;28;20053;-69
2022/08/02 11:30:38;;;;;;;0.68;0.40;;;;;;;31.73;38.59;101052.88;5007709;28;20519;-69
2022/08/02 11:33:04;;;;;;;0.30;0.30;;;;;;;31.76;36.27;101052.69;5010093;28;20081;-69